Time;durP1;ratioP1;P1;durP2;ratioP2;P2;SDS_P1;SDS_P2;PMS_P1;PMS_P2;Temp;Humidity;BMP_temperature;BMP_pressure;BME280_temperature;BME280_humidity;BME280_pressure;Samples;Min_cycle;Max_cycle;Signal;HPM_P1;HPM_P2
2023/10/17 00:00:12;;;;;;;1.73;1.63;;;7.50;99.90;;;;;;5086558;28;20237;-65
2023/10/17 00:02:40;;;;;;;2.83;1.77;;;7.50;99.90;;;;;;5086920;28;20198;-65
2023/10/17 00:05:09;;;;;;;3.27;1.90;;;7.50;99.90;;;;;;5087719;28;20289;-66
2023/10/17 00:07:37;;;;;;;1.80;1.70;;;7.50;99.90;;;;;;5090803;28;20233;-66
2023/10/17 00:10:08;;;;;;;2.73;1.90;;;7.50;99.90;;;;;;5086718;28;20298;-66
2023/10/17 00:12:39;;;;;;;2.20;2.10;;;7.50;99.90;;;;;;5105264;28;20779;-65
2023/10/17 00:15:16;;;;;;;1.77;1.67;;;7.40;99.90;;;;;;5106910;28;20251;-65
2023/10/17 00:17:43;;;;;;;1.90;1.80;;;7.40;99.90;;;;;;5097411;28;20206;-66
2023/10/17 00:20:17;;;;;;;3.90;1.70;;;7.40;99.90;;;;;;5087987;28;20695;-65
2023/10/17 00:22:45;;;;;;;1.70;1.60;;;7.40;99.90;;;;;;5086658;28;20278;-65
2023/10/17 00:25:17;;;;;;;4.13;1.70;;;7.40;99.90;;;;;;5086665;28;20213;-66
2023/10/17 00:27:44;;;;;;;2.77;2.00;;;7.30;99.90;;;;;;5086812;28;20592;-65
2023/10/17 00:30:17;;;;;;;2.63;1.80;;;7.30;99.90;;;;;;5086435;28;20268;-65
2023/10/17 00:32:44;;;;;;;1.90;1.80;;;7.30;99.90;;;;;;5086244;28;20194;-66
2023/10/17 00:35:18;;;;;;;2.03;1.93;;;7.30;99.90;;;;;;5093483;28;20290;-66
2023/10/17 00:37:53;;;;;;;2.07;1.97;;;7.40;99.90;;;;;;5106959;28;20664;-65
2023/10/17 00:40:43;;;;;;;2.03;1.57;;;7.40;99.90;;;;;;5106359;28;20839;-66
2023/10/17 00:43:11;;;;;;;3.20;1.83;;;7.40;99.90;;;;;;5106300;28;20259;-66
2023/10/17 00:45:38;;;;;;;2.17;1.87;;;7.40;99.90;;;;;;5096114;28;20244;-66
2023/10/17 00:48:08;;;;;;;1.60;1.47;;;7.40;99.90;;;;;;5086150;28;20289;-66
2023/10/17 00:50:36;;;;;;;1.70;1.60;;;7.40;99.90;;;;;;5086507;28;20213;-66
2023/10/17 00:53:06;;;;;;;3.27;1.90;;;7.50;99.90;;;;;;5086187;28;20563;-66
2023/10/17 00:55:35;;;;;;;2.00;1.90;;;7.50;99.90;;;;;;5085955;28;20225;-66
2023/10/17 00:58:03;;;;;;;2.70;1.87;;;7.50;99.90;;;;;;5086272;28;20267;-66
2023/10/17 01:00:36;;;;;;;2.00;1.90;;;7.50;99.90;;;;;;5091960;28;20232;-66
2023/10/17 01:03:10;;;;;;;1.80;1.70;;;7.50;99.90;;;;;;5105042;28;20277;-66
2023/10/17 01:05:57;;;;;;;2.77;1.93;;;7.50;99.90;;;;;;5086421;28;20202;-66
2023/10/17 01:08:37;;;;;;;1.87;1.77;;;7.50;99.90;;;;;;5085509;28;20218;-66
2023/10/17 01:11:09;;;;;;;2.17;2.00;;;7.50;99.90;;;;;;5084769;28;20205;-65
2023/10/17 01:13:37;;;;;;;2.50;2.30;;;7.50;99.90;;;;;;5085556;28;20195;-66
2023/10/17 01:16:07;;;;;;;2.40;2.20;;;7.50;99.90;;;;;;5085442;28;20207;-66
2023/10/17 01:18:35;;;;;;;2.63;2.13;;;7.50;99.90;;;;;;5085703;28;20206;-66
2023/10/17 01:21:04;;;;;;;2.87;2.07;;;7.50;99.90;;;;;;5085595;28;20294;-66
2023/10/17 01:23:32;;;;;;;2.20;2.00;;;7.50;99.90;;;;;;5096907;28;20234;-66
2023/10/17 01:26:05;;;;;;;2.50;2.30;;;7.50;99.90;;;;;;5105651;28;20262;-66
2023/10/17 01:28:32;;;;;;;2.90;2.50;;;7.50;99.90;;;;;;5106005;28;20552;-66
2023/10/17 01:31:01;;;;;;;2.57;2.30;;;7.50;99.90;;;;;;5105967;28;20193;-66
2023/10/17 01:33:30;;;;;;;2.50;2.30;;;7.60;99.90;;;;;;5096101;28;20210;-66
2023/10/17 01:35:58;;;;;;;2.87;2.43;;;7.60;99.90;;;;;;5103054;28;20234;-66
2023/10/17 01:38:26;;;;;;;2.63;2.40;;;7.60;99.90;;;;;;5105535;28;20763;-66
2023/10/17 01:40:54;;;;;;;2.20;2.10;;;7.60;99.90;;;;;;5092531;28;20211;-66
2023/10/17 01:43:23;;;;;;;3.00;2.73;;;7.70;99.90;;;;;;5093924;28;20757;-66
2023/10/17 01:45:50;;;;;;;2.47;2.37;;;7.60;99.90;;;;;;5106074;28;20220;-66
2023/10/17 01:48:21;;;;;;;4.03;2.47;;;7.70;99.90;;;;;;5105615;28;20206;-66
2023/10/17 01:50:48;;;;;;;2.87;2.67;;;7.70;99.90;;;;;;5105908;28;20373;-66
2023/10/17 01:53:15;;;;;;;3.07;2.50;;;7.70;99.90;;;;;;5093858;28;20223;-66
2023/10/17 01:55:48;;;;;;;2.70;2.60;;;7.70;99.90;;;;;;5085093;28;20207;-66
2023/10/17 01:58:18;;;;;;;2.80;2.60;;;7.70;99.90;;;;;;5085238;28;20249;-66
2023/10/17 02:00:46;;;;;;;3.13;2.80;;;7.70;99.90;;;;;;5097914;28;20389;-67
2023/10/17 02:03:16;;;;;;;3.40;3.10;;;7.70;99.90;;;;;;5092259;28;20251;-67
2023/10/17 02:05:44;;;;;;;2.83;2.63;;;7.70;99.90;;;;;;5106318;28;20234;-66
2023/10/17 02:08:11;;;;;;;3.23;2.60;;;7.60;99.90;;;;;;5105378;28;20206;-66
2023/10/17 02:10:38;;;;;;;3.07;2.83;;;7.60;99.90;;;;;;5105646;28;20325;-66
2023/10/17 02:13:07;;;;;;;3.00;2.80;;;7.60;99.90;;;;;;5104992;28;20202;-66
2023/10/17 02:15:37;;;;;;;3.50;3.00;;;7.60;99.90;;;;;;5105759;28;20206;-66
2023/10/17 02:18:12;;;;;;;4.50;2.77;;;7.60;99.90;;;;;;5105309;28;20251;-65
2023/10/17 02:20:45;;;;;;;3.17;2.97;;;7.60;99.90;;;;;;5105408;28;20610;-66
2023/10/17 02:23:19;;;;;;;3.20;2.70;;;7.60;99.90;;;;;;5108602;28;20198;-65
2023/10/17 02:25:46;;;;;;;5.90;3.17;;;7.60;99.90;;;;;;5109158;28;20285;-65
2023/10/17 02:28:13;;;;;;;3.30;3.00;;;7.60;99.90;;;;;;5097129;28;20296;-66
2023/10/17 02:30:40;;;;;;;3.10;2.80;;;7.60;99.90;;;;;;5086951;28;20979;-65
2023/10/17 02:33:17;;;;;;;3.30;3.00;;;7.70;99.90;;;;;;5091967;28;20285;-66
2023/10/17 02:35:59;;;;;;;3.97;2.83;;;7.70;99.90;;;;;;5106498;28;20622;-66
2023/10/17 02:38:31;;;;;;;3.00;2.80;;;7.70;99.90;;;;;;5106914;28;20199;-66
2023/10/17 02:40:58;;;;;;;3.10;2.80;;;7.70;99.90;;;;;;5105176;28;20206;-66
2023/10/17 02:43:25;;;;;;;3.03;2.83;;;7.70;99.90;;;;;;5095680;28;20230;-66
2023/10/17 02:45:53;;;;;;;4.07;3.47;;;7.70;99.90;;;;;;5089616;28;20299;-65
2023/10/17 02:48:26;;;;;;;3.17;2.97;;;7.70;99.90;;;;;;5107144;28;20227;-66
2023/10/17 02:51:00;;;;;;;2.97;2.77;;;7.70;99.90;;;;;;5107218;28;20313;-65
2023/10/17 02:53:29;;;;;;;3.13;2.93;;;7.70;99.90;;;;;;5095730;28;20191;-66
2023/10/17 02:55:56;;;;;;;3.40;3.10;;;7.70;99.90;;;;;;5086760;28;20207;-66
2023/10/17 02:58:23;;;;;;;3.10;2.90;;;7.70;99.90;;;;;;5087037;28;20210;-66
2023/10/17 03:00:51;;;;;;;3.07;2.80;;;7.70;99.90;;;;;;5086563;28;20230;-66
2023/10/17 03:03:19;;;;;;;3.53;3.27;;;7.60;99.90;;;;;;5102503;28;20635;-66
2023/10/17 03:05:50;;;;;;;3.93;3.40;;;7.70;99.90;;;;;;5093661;28;20298;-66
2023/10/17 03:08:18;;;;;;;3.10;2.90;;;7.70;99.90;;;;;;5085611;28;20635;-66
2023/10/17 03:10:51;;;;;;;2.93;2.77;;;7.70;99.90;;;;;;5085613;28;20315;-66
2023/10/17 03:13:24;;;;;;;3.53;3.33;;;7.60;99.90;;;;;;5089646;28;20273;-66
2023/10/17 03:15:56;;;;;;;3.30;3.00;;;7.60;99.90;;;;;;5086934;28;20244;-66
2023/10/17 03:18:24;;;;;;;3.13;2.90;;;7.60;99.90;;;;;;5086473;28;20199;-66
2023/10/17 03:20:53;;;;;;;3.27;3.00;;;7.60;99.90;;;;;;5086810;28;20289;-66
2023/10/17 03:23:27;;;;;;;3.73;2.93;;;7.60;99.90;;;;;;5089315;28;20207;-66
2023/10/17 03:26:00;;;;;;;3.80;3.27;;;7.50;99.90;;;;;;5101568;28;20194;-66
2023/10/17 03:28:27;;;;;;;3.77;3.47;;;7.50;99.90;;;;;;5087495;28;20542;-66
2023/10/17 03:30:54;;;;;;;3.70;3.40;;;7.50;99.90;;;;;;5087119;28;20338;-65
2023/10/17 03:33:27;;;;;;;3.67;3.30;;;7.50;99.90;;;;;;5086622;28;20321;-65
2023/10/17 03:36:05;;;;;;;3.70;3.40;;;7.50;99.90;;;;;;5086806;28;20241;-66
2023/10/17 03:38:36;;;;;;;4.20;3.90;;;7.50;99.90;;;;;;5087008;28;20203;-65
2023/10/17 03:41:06;;;;;;;4.83;3.50;;;7.50;99.90;;;;;;5086682;28;20206;-65
2023/10/17 03:43:39;;;;;;;3.50;3.30;;;7.50;99.90;;;;;;5087256;28;20211;-66
2023/10/17 03:46:06;;;;;;;3.60;3.30;;;7.50;99.90;;;;;;5091623;28;20547;-66
2023/10/17 03:48:36;;;;;;;3.57;3.30;;;7.60;99.90;;;;;;5107419;28;20289;-66
2023/10/17 03:51:16;;;;;;;3.67;3.37;;;7.60;99.90;;;;;;5107239;28;20230;-66
2023/10/17 03:53:47;;;;;;;3.30;3.10;;;7.60;99.90;;;;;;5103669;28;20206;-66
2023/10/17 03:56:23;;;;;;;4.60;3.90;;;7.60;99.90;;;;;;5107443;28;20241;-66
2023/10/17 03:58:53;;;;;;;3.87;3.60;;;7.70;99.90;;;;;;5107485;28;20229;-66
2023/10/17 04:01:23;;;;;;;4.83;3.63;;;7.70;99.90;;;;;;5107637;28;20243;-66
2023/10/17 04:03:53;;;;;;;3.70;3.43;;;7.70;99.90;;;;;;5107278;27;20247;-66
2023/10/17 04:06:34;;;;;;;4.53;3.80;;;7.70;99.90;;;;;;5107578;28;20209;-66
2023/10/17 04:09:16;;;;;;;3.97;3.67;;;7.60;99.90;;;;;;5107389;28;20190;-66
2023/10/17 04:11:46;;;;;;;3.90;3.60;;;7.60;99.90;;;;;;5107158;28;20198;-66
2023/10/17 04:14:17;;;;;;;4.60;3.60;;;7.60;99.90;;;;;;5107364;28;20198;-66
2023/10/17 04:16:46;;;;;;;3.93;3.73;;;7.70;99.90;;;;;;5096816;28;20214;-66
2023/10/17 04:19:17;;;;;;;3.93;3.63;;;7.70;99.90;;;;;;5086203;28;20293;-66
2023/10/17 04:21:51;;;;;;;5.50;3.83;;;7.70;99.90;;;;;;5085955;28;20201;-66
2023/10/17 04:24:26;;;;;;;3.87;3.60;;;7.70;99.90;;;;;;5086297;28;20214;-66
2023/10/17 04:27:05;;;;;;;3.80;3.50;;;7.70;99.90;;;;;;5085866;28;20632;-66
2023/10/17 04:29:32;;;;;;;4.10;3.80;;;7.70;99.90;;;;;;5086019;28;20237;-66
2023/10/17 04:32:01;;;;;;;3.77;3.50;;;7.70;99.90;;;;;;5087288;28;20209;-66
2023/10/17 04:34:28;;;;;;;4.13;3.77;;;7.60;99.90;;;;;;5106425;28;20737;-66
2023/10/17 04:36:57;;;;;;;4.77;4.47;;;7.60;99.90;;;;;;5105721;28;20313;-66
2023/10/17 04:39:35;;;;;;;4.40;4.10;;;7.60;99.90;;;;;;5106725;28;20217;-66
2023/10/17 04:42:09;;;;;;;3.53;3.33;;;7.70;99.90;;;;;;5094259;28;20202;-66
2023/10/17 04:44:36;;;;;;;3.93;3.63;;;7.70;99.90;;;;;;5085781;28;20637;-66
2023/10/17 04:49:52;;;;;;;4.83;4.13;;;7.60;99.90;;;;;;5098698;28;20921;-66
2023/10/17 04:52:23;;;;;;;4.27;3.87;;;7.60;99.90;;;;;;5105900;28;20210;-66
2023/10/17 04:54:52;;;;;;;4.47;4.17;;;7.50;99.90;;;;;;5105753;28;20649;-66
2023/10/17 04:57:19;;;;;;;4.50;4.20;;;7.50;99.90;;;;;;5106226;28;20289;-66
2023/10/17 04:59:59;;;;;;;5.20;4.40;;;7.60;99.90;;;;;;5106226;28;20271;-66
2023/10/17 05:08:11;;;;;;;5.00;4.57;;;7.50;99.90;;;;;;5105665;28;20190;-66
2023/10/17 06:16:53;;;;;;;4.63;4.33;;;8.00;99.90;;;;;;5088533;28;20272;-66
2023/10/17 06:19:24;;;;;;;4.27;3.93;;;8.00;99.90;;;;;;5088208;28;20650;-66
2023/10/17 06:26:02;;;;;;;4.83;4.40;;;8.10;99.90;;;;;;5091073;28;20194;-66
2023/10/17 06:30:33;;;;;;;4.87;4.47;;;8.00;99.90;;;;;;5088774;28;20274;-66
2023/10/17 06:35:52;;;;;;;6.10;3.97;;;8.00;99.90;;;;;;5084366;28;20234;-66
2023/10/17 06:38:19;;;;;;;4.53;4.13;;;8.00;99.90;;;;;;5088594;28;20203;-66
2023/10/17 06:40:51;;;;;;;5.57;4.30;;;8.00;99.90;;;;;;5094271;28;20297;-66
2023/10/17 06:43:27;;;;;;;4.87;3.93;;;8.00;99.90;;;;;;5108765;28;20295;-66
2023/10/17 06:45:57;;;;;;;4.77;4.30;;;8.10;99.90;;;;;;5105538;28;20213;-66
2023/10/17 06:48:33;;;;;;;5.60;4.03;;;8.10;99.90;;;;;;5088083;28;20282;-66
2023/10/17 06:53:48;;;;;;;4.33;4.00;;;8.20;99.90;;;;;;5088539;28;20567;-66
2023/10/17 06:56:17;;;;;;;5.27;4.73;;;8.20;99.90;;;;;;5088300;28;20264;-66
2023/10/17 06:58:44;;;;;;;5.23;4.83;;;8.20;99.90;;;;;;5087833;28;20230;-66
2023/10/17 07:01:25;;;;;;;6.40;5.40;;;8.20;99.90;;;;;;5087723;28;20668;-66
2023/10/17 07:03:55;;;;;;;6.80;6.20;;;8.30;99.90;;;;;;5087470;28;20244;-66
2023/10/17 07:06:24;;;;;;;6.17;5.60;;;8.30;99.90;;;;;;5088135;28;20195;-66
2023/10/17 07:08:52;;;;;;;4.73;4.40;;;8.30;99.90;;;;;;5087677;28;20609;-66
2023/10/17 07:11:26;;;;;;;4.80;4.30;;;8.20;99.90;;;;;;5087702;28;20671;-66
2023/10/17 07:14:09;;;;;;;4.70;4.30;;;8.20;99.90;;;;;;5087725;28;20237;-67
2023/10/17 07:16:49;;;;;;;4.53;4.13;;;8.20;99.90;;;;;;5096358;28;20710;-66
2023/10/17 07:22:11;;;;;;;4.77;4.37;;;8.20;99.90;;;;;;5107440;28;20575;-66
2023/10/17 07:24:42;;;;;;;4.43;4.03;;;8.20;99.90;;;;;;5107677;28;20191;-66
2023/10/17 07:27:18;;;;;;;4.37;3.97;;;8.20;99.90;;;;;;5091221;28;20205;-66
2023/10/17 07:29:58;;;;;;;4.63;3.97;;;8.30;99.90;;;;;;5087150;28;20239;-66
2023/10/17 07:32:32;;;;;;;4.33;3.93;;;8.30;99.90;;;;;;5086818;28;20198;-66
2023/10/17 07:35:01;;;;;;;4.40;4.00;;;8.30;99.90;;;;;;5086559;28;20285;-66
2023/10/17 07:37:34;;;;;;;4.03;3.70;;;8.30;99.90;;;;;;5096613;28;20625;-66
2023/10/17 07:40:16;;;;;;;4.37;4.07;;;8.40;99.90;;;;;;5107576;28;20310;-66
2023/10/17 07:42:45;;;;;;;4.07;3.77;;;8.40;99.90;;;;;;5107283;27;20672;-66
2023/10/17 07:45:15;;;;;;;6.63;4.20;;;8.40;99.90;;;;;;5107378;27;20206;-66
2023/10/17 07:47:51;;;;;;;5.10;4.60;;;8.50;99.90;;;;;;5088993;28;20249;-66
2023/10/17 07:50:20;;;;;;;3.90;3.60;;;8.50;99.90;;;;;;5086778;28;20553;-66
2023/10/17 07:52:50;;;;;;;5.00;4.10;;;8.50;99.90;;;;;;5086794;28;20215;-66
2023/10/17 07:55:23;;;;;;;4.10;3.70;;;8.60;99.90;;;;;;5087113;28;20369;-66
2023/10/17 07:57:53;;;;;;;4.40;4.10;;;8.70;99.90;;;;;;5086923;28;20303;-66
2023/10/17 08:00:27;;;;;;;8.67;4.10;;;8.70;99.90;;;;;;5086872;28;20282;-67
2023/10/17 08:03:00;;;;;;;4.43;4.03;;;8.80;99.90;;;;;;5086024;28;20691;-66
2023/10/17 08:05:36;;;;;;;3.60;3.30;;;8.90;99.90;;;;;;5095848;28;20206;-66
2023/10/17 08:08:08;;;;;;;3.60;3.20;;;8.90;99.90;;;;;;5107001;28;20190;-66
2023/10/17 08:10:35;;;;;;;3.30;2.97;;;9.00;99.90;;;;;;5107436;28;20226;-66
2023/10/17 08:13:02;;;;;;;2.83;2.63;;;9.00;99.90;;;;;;5107269;28;20210;-66
2023/10/17 08:15:37;;;;;;;3.23;2.53;;;9.10;99.90;;;;;;5106851;28;20747;-66
2023/10/17 08:18:14;;;;;;;3.47;2.30;;;9.10;99.90;;;;;;5096795;28;20233;-66
2023/10/17 08:21:33;;;;;;;2.93;2.73;;;9.20;99.90;;;;;;5106384;28;20703;-66
2023/10/17 08:23:54;;;;;;;3.73;2.50;;;9.30;99.90;;;;;;5106573;28;20210;-66
2023/10/17 08:26:28;;;;;;;3.87;2.60;;;9.40;99.90;;;;;;5103650;28;20206;-66
2023/10/17 08:28:56;;;;;;;3.93;2.87;;;9.40;99.90;;;;;;5106695;28;20627;-66
2023/10/17 08:31:23;;;;;;;2.73;2.30;;;9.50;99.90;;;;;;5106661;28;20305;-66
2023/10/17 08:34:08;;;;;;;2.70;2.50;;;9.60;99.90;;;;;;5106366;28;20213;-65
2023/10/17 08:36:48;;;;;;;5.23;2.80;;;9.60;99.90;;;;;;5106092;28;20238;-66
2023/10/17 08:39:51;;;;;;;5.93;2.50;;;9.70;99.90;;;;;;5106276;28;20652;-66
2023/10/17 08:42:30;;;;;;;3.63;2.97;;;9.80;99.90;;;;;;5105695;28;20292;-65
2023/10/17 08:44:57;;;;;;;3.77;2.63;;;9.90;99.90;;;;;;5105825;28;20288;-66
2023/10/17 08:47:29;;;;;;;2.57;2.37;;;10.00;99.90;;;;;;5090106;28;20210;-66
2023/10/17 08:50:02;;;;;;;2.93;2.20;;;10.20;99.90;;;;;;5085793;28;20560;-66
2023/10/17 08:52:35;;;;;;;5.93;1.87;;;10.40;99.90;;;;;;5085670;28;20195;-66
2023/10/17 08:55:02;;;;;;;1.83;1.47;;;10.40;99.90;;;;;;5085576;28;20226;-66
2023/10/17 08:57:30;;;;;;;1.60;1.50;;;10.50;99.90;;;;;;5085789;28;20207;-66
2023/10/17 09:00:22;;;;;;;2.13;1.63;;;10.50;99.90;;;;;;5085403;28;20207;-66
2023/10/17 09:02:56;;;;;;;2.33;1.60;;;10.50;99.90;;;;;;5084919;28;20661;-66
2023/10/17 09:05:27;;;;;;;1.97;0.97;;;10.50;99.90;;;;;;5085329;28;20676;-67
2023/10/17 09:07:56;;;;;;;1.83;1.23;;;10.60;99.90;;;;;;5085154;28;20700;-66
2023/10/17 09:10:28;;;;;;;3.20;0.80;;;10.50;99.90;;;;;;5085290;28;20230;-66
2023/10/17 09:15:55;;;;;;;2.87;1.13;;;10.60;99.90;;;;;;5086897;28;20890;-67
2023/10/17 09:18:27;;;;;;;0.93;0.70;;;10.60;99.90;;;;;;5105238;28;20289;-67
2023/10/17 09:20:56;;;;;;;2.77;1.17;;;10.60;99.90;;;;;;5105735;28;20289;-66
2023/10/17 09:23:26;;;;;;;0.93;0.63;;;10.70;99.90;;;;;;5092399;28;20816;-66
2023/10/17 09:25:55;;;;;;;3.23;1.03;;;10.70;99.90;;;;;;5085057;28;20319;-67
2023/10/17 09:28:24;;;;;;;3.33;0.97;;;10.70;99.90;;;;;;5085219;28;20564;-66
2023/10/17 09:30:59;;;;;;;1.50;0.90;;;10.80;99.90;;;;;;5089115;28;20226;-66
2023/10/17 09:33:30;;;;;;;2.73;0.90;;;10.90;99.90;;;;;;5088961;28;20664;-66
2023/10/17 09:36:00;;;;;;;2.30;1.30;;;11.00;99.90;;;;;;5088865;28;20234;-67
2023/10/17 09:38:27;;;;;;;3.27;1.00;;;11.10;99.90;;;;;;5089367;28;20207;-67
2023/10/17 09:40:58;;;;;;;1.50;1.10;;;11.10;99.90;;;;;;5089400;28;20221;-67
2023/10/17 09:43:25;;;;;;;4.37;1.20;;;11.20;99.90;;;;;;5088891;28;20861;-66
2023/10/17 09:45:53;;;;;;;2.60;1.10;;;11.20;99.90;;;;;;5092293;28;20293;-67
2023/10/17 09:48:27;;;;;;;1.67;1.00;;;11.20;99.90;;;;;;5109780;28;20202;-66
2023/10/17 09:50:57;;;;;;;2.07;0.90;;;11.30;99.90;;;;;;5109534;28;20218;-66
2023/10/17 09:53:31;;;;;;;1.63;1.30;;;11.30;99.90;;;;;;5109184;28;20646;-67
2023/10/17 09:56:01;;;;;;;3.70;1.10;;;11.30;99.90;;;;;;5109535;28;20285;-67
2023/10/17 09:58:33;;;;;;;1.90;1.10;;;11.30;99.90;;;;;;5109282;28;20618;-66
2023/10/17 10:01:05;;;;;;;0.90;0.87;;;11.30;99.90;;;;;;5109514;28;20281;-67
2023/10/17 10:03:35;;;;;;;1.60;0.70;;;11.30;99.90;;;;;;5109112;28;20348;-66
2023/10/17 10:06:22;;;;;;;3.20;0.90;;;11.30;99.90;;;;;;5109141;28;20202;-66
2023/10/17 10:08:55;;;;;;;3.23;0.73;;;11.30;99.90;;;;;;5109134;28;20923;-66
2023/10/17 10:11:42;;;;;;;1.50;0.67;;;11.30;99.90;;;;;;5091527;28;20227;-67
2023/10/17 10:14:09;;;;;;;3.83;0.77;;;11.40;99.90;;;;;;5088238;28;20299;-66
2023/10/17 10:16:49;;;;;;;1.90;0.83;;;11.40;99.90;;;;;;5088372;28;20595;-67
2023/10/17 10:19:16;;;;;;;0.80;0.70;;;11.40;99.90;;;;;;5097523;28;20206;-66
2023/10/17 10:22:05;;;;;;;2.60;0.87;;;11.50;99.90;;;;;;5109080;28;20309;-66
2023/10/17 10:24:36;;;;;;;0.90;0.80;;;11.60;99.90;;;;;;5104483;28;20210;-67
2023/10/17 10:27:23;;;;;;;1.37;0.90;;;11.90;99.90;;;;;;5093099;28;20214;-67
2023/10/17 10:29:53;;;;;;;5.30;0.90;;;12.20;99.90;;;;;;5088650;28;20191;-66
2023/10/17 10:32:34;;;;;;;2.20;1.00;;;12.20;99.90;;;;;;5088006;28;20234;-67
2023/10/17 10:35:01;;;;;;;1.37;0.70;;;12.30;99.90;;;;;;5088198;28;20202;-67
2023/10/17 10:37:29;;;;;;;1.30;0.70;;;12.30;99.90;;;;;;5087728;28;20199;-67
2023/10/17 10:40:10;;;;;;;2.77;0.90;;;12.30;99.90;;;;;;5087957;28;20602;-67
2023/10/17 10:42:45;;;;;;;1.60;0.73;;;12.50;99.90;;;;;;5087370;28;20205;-67
2023/10/17 10:45:31;;;;;;;2.83;1.10;;;12.70;99.90;;;;;;5087693;28;20237;-67
2023/10/17 10:47:59;;;;;;;1.10;0.90;;;12.80;99.90;;;;;;5087771;28;20277;-67
2023/10/17 10:50:30;;;;;;;2.07;0.77;;;12.90;99.90;;;;;;5087878;28;20242;-67
2023/10/17 10:52:58;;;;;;;0.90;0.83;;;12.80;99.90;;;;;;5087964;28;20227;-67
2023/10/17 10:55:27;;;;;;;0.60;0.60;;;12.80;99.90;;;;;;5107617;28;20203;-67
2023/10/17 10:57:54;;;;;;;1.20;0.90;;;12.80;99.90;;;;;;5108465;28;20253;-67
2023/10/17 11:00:21;;;;;;;1.07;0.70;;;12.70;99.90;;;;;;5108381;28;20284;-66
2023/10/17 11:02:49;;;;;;;3.40;0.73;;;12.60;99.90;;;;;;5108067;28;20297;-67
2023/10/17 11:05:15;;;;;;;1.20;0.83;;;12.50;99.90;;;;;;5108157;28;20210;-67
2023/10/17 11:07:44;;;;;;;1.10;0.80;;;12.50;99.90;;;;;;5107993;28;20202;-66
2023/10/17 11:10:13;;;;;;;2.30;0.80;;;12.40;99.90;;;;;;5107882;28;20206;-67
2023/10/17 11:12:53;;;;;;;1.73;0.80;;;12.30;99.90;;;;;;5107506;28;20234;-67
2023/10/17 11:15:26;;;;;;;1.40;0.90;;;12.20;99.90;;;;;;5107465;28;20932;-67
2023/10/17 11:18:00;;;;;;;2.40;0.80;;;12.20;99.90;;;;;;5087733;28;20215;-67
2023/10/17 11:20:28;;;;;;;0.83;0.73;;;12.10;99.90;;;;;;5087640;28;20273;-67
2023/10/17 11:22:56;;;;;;;1.30;0.63;;;12.00;99.90;;;;;;5090885;28;20238;-67
2023/10/17 11:25:27;;;;;;;1.63;0.73;;;11.90;99.90;;;;;;5087560;28;20242;-67
2023/10/17 11:28:00;;;;;;;0.47;0.37;;;11.90;99.90;;;;;;5087011;28;20195;-67
2023/10/17 11:30:34;;;;;;;0.80;0.80;;;11.90;99.90;;;;;;5087831;28;20270;-67
2023/10/17 11:33:04;;;;;;;0.80;0.50;;;12.00;99.90;;;;;;5086963;28;20240;-67
2023/10/17 11:35:32;;;;;;;1.60;0.57;;;12.00;99.90;;;;;;5087104;28;20242;-67
2023/10/17 11:37:59;;;;;;;1.07;0.60;;;12.00;99.90;;;;;;5086775;28;20218;-66
2023/10/17 11:40:38;;;;;;;1.17;0.50;;;11.90;99.90;;;;;;5086804;28;20215;-67
2023/10/17 11:43:17;;;;;;;1.37;0.83;;;11.90;99.90;;;;;;5086836;28;20286;-66
2023/10/17 11:45:45;;;;;;;1.17;0.70;;;11.90;99.90;;;;;;5088504;28;20277;-67
2023/10/17 11:48:29;;;;;;;1.17;0.70;;;11.90;99.90;;;;;;5106811;28;20233;-66
2023/10/17 11:51:13;;;;;;;1.03;0.53;;;11.90;99.90;;;;;;5106314;28;20857;-67
2023/10/17 11:54:07;;;;;;;1.00;0.50;;;11.80;99.90;;;;;;5106557;28;20289;-67
2023/10/17 11:56:35;;;;;;;1.83;0.50;;;11.80;99.90;;;;;;5106825;28;20193;-67
2023/10/17 11:59:04;;;;;;;2.87;0.87;;;11.80;99.90;;;;;;5106842;28;20257;-67
2023/10/17 12:01:33;;;;;;;1.73;0.70;;;11.70;99.90;;;;;;5107070;28;20664;-66
2023/10/17 12:04:05;;;;;;;1.47;0.60;;;11.70;99.90;;;;;;5106819;28;20205;-67
2023/10/17 12:06:34;;;;;;;2.17;0.80;;;11.60;99.90;;;;;;5107039;28;20191;-67
2023/10/17 12:09:17;;;;;;;2.10;1.00;;;11.60;99.90;;;;;;5106767;28;20703;-67
2023/10/17 12:11:44;;;;;;;1.27;0.80;;;11.70;99.90;;;;;;5106426;28;20306;-67
2023/10/17 12:14:19;;;;;;;0.87;0.70;;;11.60;99.90;;;;;;5106324;28;20208;-66
2023/10/17 12:16:47;;;;;;;2.60;0.70;;;11.60;99.90;;;;;;5106546;27;20213;-66
2023/10/17 12:19:16;;;;;;;0.97;0.77;;;11.70;99.90;;;;;;5091722;28;20736;-67
2023/10/17 12:21:47;;;;;;;1.07;0.80;;;11.70;99.90;;;;;;5086447;28;20298;-67
2023/10/17 12:24:19;;;;;;;1.13;0.70;;;11.70;99.90;;;;;;5085843;28;20187;-66
2023/10/17 12:26:47;;;;;;;0.73;0.60;;;11.60;99.90;;;;;;5085472;28;20670;-67
2023/10/17 12:29:15;;;;;;;2.47;0.50;;;11.60;99.90;;;;;;5085806;28;20230;-66
2023/10/17 12:31:42;;;;;;;2.97;1.13;;;11.70;99.90;;;;;;5085590;28;20271;-66
2023/10/17 12:34:09;;;;;;;1.23;0.70;;;11.60;99.90;;;;;;5085572;28;20290;-67
2023/10/17 12:36:37;;;;;;;0.83;0.80;;;11.60;99.90;;;;;;5086209;28;20241;-66
2023/10/17 12:39:06;;;;;;;1.80;1.20;;;11.70;99.90;;;;;;5086012;28;20285;-66
2023/10/17 12:41:34;;;;;;;2.00;1.10;;;11.60;99.90;;;;;;5085998;28;20731;-67
2023/10/17 12:44:02;;;;;;;0.93;0.73;;;11.50;99.90;;;;;;5086003;28;20669;-67
2023/10/17 12:46:30;;;;;;;2.03;0.90;;;11.50;99.90;;;;;;5093747;28;20622;-67
2023/10/17 12:48:58;;;;;;;3.13;0.93;;;11.50;99.90;;;;;;5105306;28;20764;-67
2023/10/17 12:51:25;;;;;;;3.80;1.73;;;11.50;99.90;;;;;;5105667;28;20682;-67
2023/10/17 12:53:52;;;;;;;0.63;0.63;;;11.50;99.90;;;;;;5106026;28;20210;-67
2023/10/17 12:56:20;;;;;;;8.27;1.70;;;11.50;99.90;;;;;;5105476;28;20202;-67
2023/10/17 12:58:47;;;;;;;7.53;1.60;;;11.50;99.90;;;;;;5105235;28;20606;-67
2023/10/17 13:01:14;;;;;;;2.50;2.30;;;11.50;99.90;;;;;;5105558;28;20663;-66
2023/10/17 13:03:42;;;;;;;1.13;0.70;;;11.50;99.90;;;;;;5105518;28;20300;-67
2023/10/17 13:06:10;;;;;;;1.10;1.00;;;11.50;99.90;;;;;;5105527;28;20622;-67
2023/10/17 13:08:37;;;;;;;2.40;1.10;;;11.50;99.90;;;;;;5105779;28;20302;-66
2023/10/17 13:11:04;;;;;;;1.07;0.90;;;11.50;99.90;;;;;;5105495;28;20225;-67
2023/10/17 13:13:31;;;;;;;2.60;0.70;;;11.50;99.90;;;;;;5105424;28;20333;-66
2023/10/17 13:15:59;;;;;;;2.60;1.10;;;11.50;99.90;;;;;;5101247;28;20257;-67
2023/10/17 13:18:28;;;;;;;1.37;0.80;;;11.50;99.90;;;;;;5085228;28;20291;-66
2023/10/17 13:21:02;;;;;;;0.53;0.53;;;11.50;99.90;;;;;;5084938;28;20202;-67
2023/10/17 13:23:30;;;;;;;1.63;1.20;;;11.50;99.90;;;;;;5085070;28;20672;-67
2023/10/17 13:25:58;;;;;;;1.27;0.70;;;11.50;99.90;;;;;;5084545;28;20198;-66
2023/10/17 13:28:25;;;;;;;0.93;0.90;;;11.50;99.90;;;;;;5085141;28;20202;-66
2023/10/17 13:30:52;;;;;;;2.47;0.97;;;11.50;99.90;;;;;;5085309;28;20234;-67
2023/10/17 13:33:21;;;;;;;1.43;1.20;;;11.50;99.90;;;;;;5084982;28;20245;-66
2023/10/17 13:35:48;;;;;;;0.57;0.40;;;11.60;99.90;;;;;;5084767;28;20316;-67
2023/10/17 13:38:17;;;;;;;6.17;0.90;;;11.70;99.90;;;;;;5084467;28;20203;-66
2023/10/17 13:40:44;;;;;;;0.83;0.70;;;11.80;99.90;;;;;;5085287;28;20217;-66
2023/10/17 13:43:13;;;;;;;1.17;0.70;;;11.90;99.90;;;;;;5095651;28;20212;-66
2023/10/17 13:45:41;;;;;;;1.80;0.90;;;11.90;99.90;;;;;;5104530;28;20298;-66
2023/10/17 13:48:08;;;;;;;2.17;0.70;;;12.00;99.90;;;;;;5084741;28;20219;-67
2023/10/17 13:50:36;;;;;;;4.60;1.20;;;12.00;99.90;;;;;;5085051;28;20290;-67
2023/10/17 13:53:08;;;;;;;1.40;0.70;;;12.10;99.90;;;;;;5084532;28;20338;-67
2023/10/17 13:55:38;;;;;;;0.93;0.93;;;12.00;99.90;;;;;;5084970;28;20202;-67
2023/10/17 13:58:05;;;;;;;0.90;0.80;;;12.00;99.90;;;;;;5084524;28;20226;-66
2023/10/17 14:00:42;;;;;;;0.97;0.87;;;12.00;99.90;;;;;;5084892;28;20246;-67
2023/10/17 14:03:12;;;;;;;1.80;0.60;;;12.00;99.90;;;;;;5084745;28;20277;-67
2023/10/17 14:05:41;;;;;;;1.30;0.80;;;12.00;99.90;;;;;;5105089;28;20230;-67
2023/10/17 14:08:08;;;;;;;0.77;0.77;;;12.10;99.90;;;;;;5104982;28;20220;-67
2023/10/17 14:10:37;;;;;;;2.17;0.60;;;12.10;99.90;;;;;;5104405;28;20233;-67
2023/10/17 14:13:08;;;;;;;0.70;0.63;;;12.10;99.90;;;;;;5084598;28;20660;-67
2023/10/17 14:15:35;;;;;;;5.97;1.20;;;12.10;99.90;;;;;;5084947;28;20278;-66
2023/10/17 14:18:09;;;;;;;0.83;0.83;;;12.00;99.90;;;;;;5086723;28;20206;-67
2023/10/17 14:20:40;;;;;;;2.40;1.60;;;12.00;99.90;;;;;;5088843;28;20187;-67
2023/10/17 14:23:11;;;;;;;7.00;1.23;;;12.00;99.90;;;;;;5088751;28;20207;-67
2023/10/17 14:28:21;;;;;;;2.20;0.73;;;11.90;99.90;;;;;;5079453;28;20231;-67
2023/10/17 14:30:47;;;;;;;0.90;0.90;;;11.90;99.90;;;;;;5088577;28;20221;-67
2023/10/17 14:33:14;;;;;;;1.57;0.90;;;11.90;99.90;;;;;;5088001;28;20242;-67
2023/10/17 14:35:43;;;;;;;0.53;0.50;;;11.90;99.90;;;;;;5088465;28;20329;-67
2023/10/17 14:38:10;;;;;;;0.60;0.60;;;12.00;99.90;;;;;;5088164;28;20217;-67
2023/10/17 14:40:38;;;;;;;3.27;0.80;;;12.00;99.90;;;;;;5108502;28;20216;-67
2023/10/17 14:43:09;;;;;;;2.33;0.90;;;12.10;99.90;;;;;;5108689;28;20206;-67
2023/10/17 14:45:40;;;;;;;0.60;0.60;;;12.20;99.90;;;;;;5108063;28;20286;-67
2023/10/17 14:48:11;;;;;;;0.97;0.80;;;12.10;99.90;;;;;;5088035;28;20211;-67